createdAt,value
2024-02-11T00:01:58.278Z,4.32
2024-02-11T00:05:14.614Z,4.55
2024-02-11T00:07:41.366Z,3.90
2024-02-11T00:10:15.474Z,5.00
2024-02-11T00:12:44.286Z,4.43
2024-02-11T00:15:11.445Z,4.88
2024-02-11T00:17:38.693Z,4.68
2024-02-11T00:20:08.323Z,4.82
2024-02-11T00:22:35.047Z,4.72
2024-02-11T00:25:08.578Z,5.38
2024-02-11T00:27:45.551Z,4.85
2024-02-11T00:30:15.283Z,4.82
2024-02-11T00:32:43.137Z,5.47
2024-02-11T00:35:09.925Z,4.82
2024-02-11T00:38:01.782Z,5.32
2024-02-11T00:40:29.255Z,5.53
2024-02-11T00:42:55.919Z,5.20
2024-02-11T00:45:22.838Z,5.75
2024-02-11T00:47:50.109Z,5.60
2024-02-11T00:50:17.095Z,5.40
2024-02-11T00:52:47.053Z,5.57
2024-02-11T00:55:22.346Z,5.85
2024-02-11T00:57:49.793Z,5.90
2024-02-11T01:00:17.647Z,5.28
2024-02-11T01:05:32.158Z,5.22
2024-02-11T01:07:58.908Z,5.95
2024-02-11T01:10:38.556Z,5.50
2024-02-11T01:13:05.746Z,5.85
2024-02-11T01:15:32.548Z,5.95
2024-02-11T01:17:59.498Z,5.35
2024-02-11T01:20:26.056Z,5.63
2024-02-11T01:22:55.952Z,4.90
2024-02-11T01:25:23.400Z,5.22
2024-02-11T01:27:51.389Z,5.35
2024-02-11T01:30:19.262Z,5.45
2024-02-11T01:32:46.546Z,5.03
2024-02-11T01:35:16.462Z,5.10
2024-02-11T01:37:44.748Z,5.03
2024-02-11T01:40:20.547Z,5.85
2024-02-11T01:42:48.191Z,5.82
2024-02-11T01:45:19.275Z,5.70
2024-02-11T01:48:12.822Z,6.20
2024-02-11T01:51:19.770Z,5.22
2024-02-11T01:53:50.656Z,5.05
2024-02-11T01:56:21.958Z,4.35
2024-02-11T01:58:50.482Z,4.70
2024-02-11T02:01:22.340Z,4.40
2024-02-11T02:04:02.954Z,5.88
2024-02-11T02:06:29.657Z,4.68
2024-02-11T02:08:59.676Z,5.93
2024-02-11T02:11:50.917Z,5.10
2024-02-11T02:14:21.106Z,5.47
2024-02-11T02:16:50.828Z,5.72
2024-02-11T02:19:17.573Z,4.70
2024-02-11T02:21:52.279Z,5.50
2024-02-11T02:24:19.040Z,5.05
2024-02-11T02:26:54.572Z,5.22
2024-02-11T02:29:21.118Z,5.60
2024-02-11T02:31:50.884Z,4.97
2024-02-11T02:34:17.982Z,6.03
2024-02-11T02:36:49.260Z,5.50
2024-02-11T02:39:19.908Z,5.10
2024-02-11T02:41:46.497Z,4.45
2024-02-11T02:44:13.140Z,4.72
2024-02-11T02:46:39.762Z,5.50
2024-02-11T02:49:18.023Z,5.35
2024-02-11T02:52:09.708Z,4.22
2024-02-11T02:54:36.274Z,4.05
2024-02-11T02:57:02.921Z,4.53
2024-02-11T02:59:32.274Z,4.78
2024-02-11T03:02:02.501Z,5.25
2024-02-11T03:04:29.750Z,5.03
2024-02-11T03:06:57.105Z,5.10
2024-02-11T03:09:25.535Z,4.80
2024-02-11T03:11:52.514Z,5.75
2024-02-11T03:14:22.208Z,5.18
2024-02-11T03:16:52.822Z,5.30
2024-02-11T03:19:22.159Z,5.30
2024-02-11T03:21:54.029Z,4.93
2024-02-11T03:24:21.962Z,5.20
2024-02-11T03:26:48.572Z,4.65
2024-02-11T03:29:15.633Z,5.03
2024-02-11T03:32:07.589Z,4.97
2024-02-11T03:34:46.017Z,4.95
2024-02-11T03:37:18.900Z,5.97
2024-02-11T03:39:52.420Z,4.68
2024-02-11T03:42:25.610Z,4.95
2024-02-11T03:44:55.166Z,5.18
2024-02-11T03:47:26.872Z,5.53
2024-02-11T03:49:53.992Z,5.43
2024-02-11T03:52:20.604Z,5.38
2024-02-11T03:54:47.216Z,5.32
2024-02-11T03:57:19.858Z,6.13
2024-02-11T03:59:52.238Z,4.70
2024-02-11T04:02:19.598Z,5.65
2024-02-11T04:04:51.262Z,5.20
2024-02-11T04:07:21.253Z,5.80
2024-02-11T04:09:53.943Z,5.63
2024-02-11T04:12:31.908Z,5.50
2024-02-11T04:15:02.387Z,5.10
2024-02-11T04:17:29.640Z,5.13
2024-02-11T04:19:58.848Z,5.35
2024-02-11T04:22:28.228Z,5.53
2024-02-11T04:24:55.865Z,5.40
2024-02-11T04:27:30.821Z,4.95
2024-02-11T04:30:01.086Z,5.63
2024-02-11T04:32:33.727Z,5.72
2024-02-11T04:35:02.433Z,5.30
2024-02-11T04:37:29.607Z,5.47
2024-02-11T04:39:56.190Z,5.10
2024-02-11T04:42:41.554Z,6.15
2024-02-11T04:45:09.500Z,5.22
2024-02-11T04:47:42.299Z,5.97
2024-02-11T04:50:11.675Z,5.10
2024-02-11T04:52:41.418Z,5.47
2024-02-11T04:55:12.068Z,5.10
2024-02-11T04:57:40.185Z,5.18
2024-02-11T05:00:27.273Z,5.63
2024-02-11T05:02:59.653Z,5.38
2024-02-11T05:05:38.862Z,5.43
2024-02-11T05:08:08.986Z,6.10
2024-02-11T05:10:41.749Z,5.53
2024-02-11T05:13:09.623Z,5.25
2024-02-11T05:15:44.368Z,6.15
2024-02-11T05:18:22.391Z,5.55
2024-02-11T05:20:49.510Z,5.10
2024-02-11T05:23:21.212Z,5.75
2024-02-11T05:26:50.479Z,5.95
2024-02-11T05:29:27.496Z,4.78
2024-02-11T05:31:54.156Z,5.70
2024-02-11T05:34:47.370Z,4.97
2024-02-11T05:37:39.911Z,4.90
2024-02-11T05:40:11.721Z,5.57
2024-02-11T05:42:44.854Z,5.57
2024-02-11T05:45:11.760Z,5.97
2024-02-11T05:47:38.456Z,5.80
2024-02-11T05:50:09.628Z,5.18
2024-02-11T05:52:37.456Z,5.97
2024-02-11T05:55:05.918Z,5.50
2024-02-11T05:57:35.014Z,5.28
2024-02-11T06:00:01.545Z,5.05
2024-02-11T06:02:35.505Z,6.50
2024-02-11T06:05:03.355Z,5.55
2024-02-11T06:07:30.759Z,5.72
2024-02-11T06:09:57.357Z,6.00
2024-02-11T06:12:23.929Z,6.68
2024-02-11T06:14:50.816Z,7.28
2024-02-11T06:17:22.702Z,6.68
2024-02-11T06:19:55.537Z,7.78
2024-02-11T06:23:27.973Z,9.73
2024-02-11T06:26:04.635Z,6.78
2024-02-11T06:30:57.745Z,8.48
2024-02-11T06:33:24.397Z,14.32
2024-02-11T06:38:31.712Z,7.50
2024-02-11T06:40:58.819Z,7.55
2024-02-11T06:43:35.194Z,9.07
2024-02-11T06:46:04.200Z,6.75
2024-02-11T06:48:30.856Z,6.35
2024-02-11T06:50:57.800Z,3.65
2024-02-11T06:53:24.432Z,4.40
2024-02-11T06:55:52.437Z,2.40
2024-02-11T06:58:31.655Z,2.10
2024-02-11T07:00:58.310Z,1.98
2024-02-11T07:03:25.066Z,2.05
2024-02-11T07:05:55.211Z,1.85
2024-02-11T07:08:46.720Z,2.47
2024-02-11T07:11:18.146Z,2.83
2024-02-11T07:13:52.733Z,2.35
2024-02-11T07:16:29.017Z,2.58
2024-02-11T07:18:55.873Z,1.08
2024-02-11T07:21:30.638Z,1.60
2024-02-11T07:23:57.677Z,2.40
2024-02-11T07:26:25.188Z,1.73
2024-02-11T07:28:55.190Z,1.63
2024-02-11T07:31:22.076Z,1.17
2024-02-11T07:33:51.730Z,1.42
2024-02-11T07:36:24.319Z,1.38
2024-02-11T07:38:52.846Z,1.73
2024-02-11T07:41:24.065Z,1.40
2024-02-11T07:48:39.834Z,1.02
2024-02-11T07:55:08.773Z,0.80
2024-02-11T07:57:35.474Z,1.20
2024-02-11T08:01:04.847Z,1.25
2024-02-11T08:03:33.686Z,1.45
2024-02-11T08:06:00.616Z,0.73
2024-02-11T08:08:30.530Z,1.27
2024-02-11T08:10:57.340Z,1.13
2024-02-11T08:13:27.309Z,1.27
2024-02-11T08:15:54.248Z,1.17
2024-02-11T08:18:24.041Z,1.25
2024-02-11T08:20:56.641Z,0.95
2024-02-11T08:23:49.883Z,1.00
2024-02-11T08:26:17.214Z,1.58
2024-02-11T08:29:00.760Z,1.15
2024-02-11T08:31:46.265Z,1.08
2024-02-11T08:34:38.337Z,1.60
2024-02-11T08:37:24.969Z,1.30
2024-02-11T08:43:26.990Z,1.70
2024-02-11T08:49:27.546Z,2.15
2024-02-11T08:52:00.007Z,2.25
2024-02-11T08:54:28.054Z,2.45
2024-02-11T08:57:23.694Z,2.55
2024-02-11T09:00:54.962Z,2.78
2024-02-11T09:03:53.309Z,3.47
2024-02-11T09:09:53.925Z,2.65
2024-02-11T09:16:06.748Z,3.33
2024-02-11T09:19:23.731Z,5.93
2024-02-11T09:21:54.227Z,4.22
2024-02-11T09:24:53.636Z,3.17
2024-02-11T09:27:30.239Z,4.05
2024-02-11T09:32:26.676Z,3.17
2024-02-11T09:35:22.145Z,4.55
2024-02-11T09:38:23.524Z,4.60
2024-02-11T10:07:45.802Z,6.78
2024-02-11T10:10:17.690Z,6.47
2024-02-11T10:12:46.661Z,6.45
2024-02-11T11:47:50.083Z,7.45
2024-02-11T11:51:28.020Z,8.75
2024-02-11T15:50:39.128Z,0.40
2024-02-11T15:53:12.034Z,1.38
2024-02-11T15:56:02.100Z,0.52
2024-02-11T15:58:53.875Z,0.57
2024-02-11T16:01:30.616Z,0.57
2024-02-11T16:04:30.342Z,0.45
2024-02-11T16:10:59.814Z,0.73
2024-02-11T16:14:06.414Z,0.45
2024-02-11T16:24:46.690Z,0.57
2024-02-11T16:31:06.112Z,0.57
2024-02-11T16:33:35.857Z,0.63
2024-02-11T16:34:07.559Z,0.50
2024-02-11T16:36:04.064Z,0.40
2024-02-11T16:38:31.732Z,0.80
2024-02-11T16:41:04.723Z,0.50
2024-02-11T16:54:10.584Z,1.00
2024-02-11T17:09:23.171Z,2.67
2024-02-11T17:12:07.557Z,2.22
2024-02-11T17:14:46.280Z,2.08
2024-02-11T17:20:01.256Z,1.67
2024-02-11T17:22:27.954Z,1.73
2024-02-11T17:29:03.756Z,2.28
2024-02-11T17:31:39.470Z,3.15
2024-02-11T17:34:37.964Z,2.80
2024-02-11T17:39:52.613Z,1.98
2024-02-11T17:47:37.482Z,2.70
2024-02-11T17:55:02.894Z,2.97
2024-02-11T18:01:03.269Z,2.47
2024-02-11T18:17:00.489Z,6.93
2024-02-11T18:23:20.772Z,6.82
2024-02-11T18:27:03.436Z,4.00
2024-02-11T18:44:10.153Z,4.80
2024-02-11T18:53:00.022Z,5.38
2024-02-11T18:55:39.775Z,5.22
2024-02-11T18:58:10.754Z,6.43
2024-02-11T19:00:39.102Z,5.63
2024-02-11T19:03:06.877Z,5.50
2024-02-11T19:12:24.561Z,4.68
2024-02-11T19:18:06.185Z,5.13
2024-02-11T19:20:34.082Z,4.97
2024-02-11T19:23:03.187Z,5.70
2024-02-11T19:26:04.238Z,5.63
2024-02-11T19:28:32.864Z,5.30
2024-02-11T19:31:02.466Z,5.72
2024-02-11T19:33:29.651Z,5.93
2024-02-11T19:35:57.678Z,6.40
2024-02-11T19:38:27.867Z,6.53
2024-02-11T19:40:59.906Z,6.15
2024-02-11T19:43:28.085Z,6.10
2024-02-11T19:45:56.935Z,5.95
2024-02-11T19:52:20.607Z,3.47
2024-02-11T19:58:23.335Z,2.78
2024-02-11T20:00:59.070Z,3.47
2024-02-11T20:03:29.361Z,3.58
2024-02-11T20:06:27.230Z,4.15
2024-02-11T20:13:32.113Z,4.00
2024-02-11T20:15:58.791Z,4.88
2024-02-11T20:18:29.365Z,4.70
2024-02-11T20:21:00.002Z,4.65
2024-02-11T20:23:27.539Z,4.30
2024-02-11T20:30:02.934Z,4.28
2024-02-11T20:32:36.374Z,4.70
2024-02-11T20:35:05.869Z,5.15
2024-02-11T20:37:38.893Z,4.75
2024-02-11T20:40:27.284Z,5.07
2024-02-11T20:42:59.411Z,4.25
2024-02-11T20:48:23.223Z,4.57
2024-02-11T20:51:14.175Z,4.30
2024-02-11T20:53:44.932Z,5.38
2024-02-11T20:56:30.666Z,4.93
2024-02-11T20:58:57.380Z,4.40
2024-02-11T21:01:40.187Z,4.93
2024-02-11T21:07:02.872Z,4.05
2024-02-11T21:09:29.485Z,3.65
2024-02-11T21:12:07.597Z,4.30
2024-02-11T21:15:09.642Z,5.00
2024-02-11T21:17:36.357Z,4.35
2024-02-11T21:20:15.803Z,4.50
2024-02-11T21:22:43.215Z,4.32
2024-02-11T21:25:13.055Z,3.85
2024-02-11T21:27:48.793Z,4.05
2024-02-11T21:30:34.936Z,4.55
2024-02-11T21:35:31.144Z,3.35
2024-02-11T21:38:01.147Z,3.97
2024-02-11T21:40:30.818Z,4.13
2024-02-11T21:42:58.207Z,3.95
2024-02-11T21:46:27.226Z,4.10
2024-02-11T21:49:03.601Z,3.88
2024-02-11T21:56:59.350Z,3.28
2024-02-11T22:02:35.567Z,3.97
2024-02-11T22:05:02.509Z,4.35
2024-02-11T22:07:37.631Z,3.78
2024-02-11T22:13:25.868Z,5.00
2024-02-11T22:15:58.244Z,4.85
2024-02-11T22:18:33.734Z,5.15
2024-02-11T22:22:05.624Z,5.50
2024-02-11T22:33:06.597Z,4.72
2024-02-11T22:35:33.300Z,4.85
2024-02-11T22:38:00.016Z,4.93
2024-02-11T22:40:26.853Z,4.78
2024-02-11T22:42:58.628Z,4.97
2024-02-11T22:45:25.221Z,4.40
2024-02-11T22:48:12.407Z,5.68
2024-02-11T22:50:41.241Z,6.07
2024-02-11T22:53:11.801Z,5.18
2024-02-11T22:55:38.560Z,5.47
2024-02-11T22:58:05.168Z,5.13
2024-02-11T23:00:37.951Z,6.15
2024-02-11T23:03:06.805Z,5.47
2024-02-11T23:05:37.218Z,5.70
2024-02-11T23:08:05.606Z,5.22
2024-02-11T23:10:33.837Z,5.18
2024-02-11T23:13:05.016Z,4.60
2024-02-11T23:15:31.812Z,4.53
2024-02-11T23:18:08.789Z,4.53
2024-02-11T23:20:35.588Z,5.13
2024-02-11T23:23:02.957Z,5.07
2024-02-11T23:25:29.775Z,4.40
2024-02-11T23:28:10.565Z,4.40
2024-02-11T23:30:38.815Z,6.00
2024-02-11T23:33:07.416Z,4.90
2024-02-11T23:35:41.079Z,4.82
2024-02-11T23:38:08.238Z,4.93
2024-02-11T23:40:35.010Z,4.82
2024-02-11T23:43:01.815Z,4.75
2024-02-11T23:45:28.398Z,5.50
2024-02-11T23:48:03.139Z,4.72
2024-02-11T23:50:33.648Z,4.97
2024-02-11T23:55:56.459Z,3.97
2024-02-11T23:58:36.450Z,4.57
